Terminal Aerodrome Forecast
Issued by NWS

Current Version | Previous Version | Text Only | Print | Product List | Glossary On
Versions: 1 2 3 4 5 6 7 8 9 10 11 12 13 14 15 16 17 18 19 20 21 22 23 24
000
FTUS41 KALY 050550
TAFPSF
TAF
KPSF 050550Z 0506/0606 27007KT P6SM SCT050 BKN100
     FM050900 30008KT P6SM BKN050 BKN080
     FM051200 32010KT P6SM SCT050 SCT080 SCT250
     FM051600 32009KT P6SM BKN250
     FM060300 VRB03KT P6SM SCT100 OVC250=

USA.gov is the U.S. government's official web portal to all federal, state and local government web resources and services.